sensor_id;sensor_type;location;lat;lon;timestamp;temperature;humidity
34095;DHT22;20372;47.080;15.410;2023-05-10T00:02:06;9.60;99.90
34095;DHT22;20372;47.080;15.410;2023-05-10T00:04:32;9.50;99.90
34095;DHT22;20372;47.080;15.410;2023-05-10T00:06:57;9.50;99.90
34095;DHT22;20372;47.080;15.410;2023-05-10T00:09:23;9.50;99.90
34095;DHT22;20372;47.080;15.410;2023-05-10T00:11:48;9.50;99.90
34095;DHT22;20372;47.080;15.410;2023-05-10T00:14:14;9.40;99.90
34095;DHT22;20372;47.080;15.410;2023-05-10T00:16:40;9.20;99.90
34095;DHT22;20372;47.080;15.410;2023-05-10T00:19:06;9.20;99.90
34095;DHT22;20372;47.080;15.410;2023-05-10T00:21:31;9.10;99.90
34095;DHT22;20372;47.080;15.410;2023-05-10T00:23:59;9.10;99.90
34095;DHT22;20372;47.080;15.410;2023-05-10T00:26:25;9.10;99.90
34095;DHT22;20372;47.080;15.410;2023-05-10T00:28:50;9.10;99.90
34095;DHT22;20372;47.080;15.410;2023-05-10T00:31:16;9.20;99.90
34095;DHT22;20372;47.080;15.410;2023-05-10T00:33:41;9.20;99.90
34095;DHT22;20372;47.080;15.410;2023-05-10T00:36:07;9.10;99.90
34095;DHT22;20372;47.080;15.410;2023-05-10T00:38:33;9.10;99.90
34095;DHT22;20372;47.080;15.410;2023-05-10T00:40:59;9.00;99.90
34095;DHT22;20372;47.080;15.410;2023-05-10T00:43:24;9.00;99.90
34095;DHT22;20372;47.080;15.410;2023-05-10T00:45:50;9.00;99.90
34095;DHT22;20372;47.080;15.410;2023-05-10T00:48:16;9.00;99.90
34095;DHT22;20372;47.080;15.410;2023-05-10T00:50:41;9.00;99.90
34095;DHT22;20372;47.080;15.410;2023-05-10T00:53:07;8.90;99.90
34095;DHT22;20372;47.080;15.410;2023-05-10T00:55:34;8.90;99.90
34095;DHT22;20372;47.080;15.410;2023-05-10T00:57:59;8.80;99.90
34095;DHT22;20372;47.080;15.410;2023-05-10T01:00:25;8.70;99.90
34095;DHT22;20372;47.080;15.410;2023-05-10T01:02:52;8.70;99.90
34095;DHT22;20372;47.080;15.410;2023-05-10T01:05:18;8.70;99.90
34095;DHT22;20372;47.080;15.410;2023-05-10T01:07:44;8.50;99.90
34095;DHT22;20372;47.080;15.410;2023-05-10T01:10:09;8.50;99.90
34095;DHT22;20372;47.080;15.410;2023-05-10T01:12:36;8.50;99.90
34095;DHT22;20372;47.080;15.410;2023-05-10T01:15:03;8.50;99.90
34095;DHT22;20372;47.080;15.410;2023-05-10T01:17:29;8.50;99.90
34095;DHT22;20372;47.080;15.410;2023-05-10T01:19:55;8.40;99.90
34095;DHT22;20372;47.080;15.410;2023-05-10T01:25:25;8.40;99.90
34095;DHT22;20372;47.080;15.410;2023-05-10T01:36:08;8.20;99.90
34095;DHT22;20372;47.080;15.410;2023-05-10T01:41:13;8.20;99.90
34095;DHT22;20372;47.080;15.410;2023-05-10T01:43:46;8.10;99.90
34095;DHT22;20372;47.080;15.410;2023-05-10T01:46:17;8.10;99.90
34095;DHT22;20372;47.080;15.410;2023-05-10T01:48:51;8.00;99.90
34095;DHT22;20372;47.080;15.410;2023-05-10T01:51:19;8.00;99.90
34095;DHT22;20372;47.080;15.410;2023-05-10T01:53:47;8.00;99.90
34095;DHT22;20372;47.080;15.410;2023-05-10T01:56:13;8.10;99.90
34095;DHT22;20372;47.080;15.410;2023-05-10T01:58:39;8.00;99.90
34095;DHT22;20372;47.080;15.410;2023-05-10T02:01:07;8.00;99.90
34095;DHT22;20372;47.080;15.410;2023-05-10T02:03:33;7.90;99.90
34095;DHT22;20372;47.080;15.410;2023-05-10T02:06:00;7.90;99.90
34095;DHT22;20372;47.080;15.410;2023-05-10T02:08:26;7.90;99.90
34095;DHT22;20372;47.080;15.410;2023-05-10T02:10:53;7.90;99.90
34095;DHT22;20372;47.080;15.410;2023-05-10T02:13:19;7.80;99.90
34095;DHT22;20372;47.080;15.410;2023-05-10T02:15:47;7.80;99.90
34095;DHT22;20372;47.080;15.410;2023-05-10T02:18:13;7.80;99.90
34095;DHT22;20372;47.080;15.410;2023-05-10T02:20:39;7.80;99.90
34095;DHT22;20372;47.080;15.410;2023-05-10T02:23:05;7.80;99.90
34095;DHT22;20372;47.080;15.410;2023-05-10T02:25:31;7.80;99.90
34095;DHT22;20372;47.080;15.410;2023-05-10T02:27:57;7.70;99.90
34095;DHT22;20372;47.080;15.410;2023-05-10T02:30:25;7.70;99.90
34095;DHT22;20372;47.080;15.410;2023-05-10T02:32:51;7.70;99.90
34095;DHT22;20372;47.080;15.410;2023-05-10T02:35:17;7.60;99.90
34095;DHT22;20372;47.080;15.410;2023-05-10T02:37:43;7.60;99.90
34095;DHT22;20372;47.080;15.410;2023-05-10T02:40:10;7.60;99.90
34095;DHT22;20372;47.080;15.410;2023-05-10T02:42:37;7.60;99.90
34095;DHT22;20372;47.080;15.410;2023-05-10T02:45:08;7.50;99.90
34095;DHT22;20372;47.080;15.410;2023-05-10T02:47:36;7.50;99.90
34095;DHT22;20372;47.080;15.410;2023-05-10T02:50:01;7.50;99.90
34095;DHT22;20372;47.080;15.410;2023-05-10T02:52:28;7.50;99.90
34095;DHT22;20372;47.080;15.410;2023-05-10T02:54:55;7.50;99.90
34095;DHT22;20372;47.080;15.410;2023-05-10T02:57:25;7.50;99.90
34095;DHT22;20372;47.080;15.410;2023-05-10T02:59:51;7.40;99.90
34095;DHT22;20372;47.080;15.410;2023-05-10T03:02:17;7.40;99.90
34095;DHT22;20372;47.080;15.410;2023-05-10T03:04:43;7.40;99.90
34095;DHT22;20372;47.080;15.410;2023-05-10T03:07:08;7.40;99.90
34095;DHT22;20372;47.080;15.410;2023-05-10T03:09:34;7.50;99.90
34095;DHT22;20372;47.080;15.410;2023-05-10T03:12:18;7.40;99.90
34095;DHT22;20372;47.080;15.410;2023-05-10T03:14:52;7.40;99.90
34095;DHT22;20372;47.080;15.410;2023-05-10T03:17:23;7.40;99.90
34095;DHT22;20372;47.080;15.410;2023-05-10T03:19:55;7.40;99.90
34095;DHT22;20372;47.080;15.410;2023-05-10T03:22:44;7.40;99.90
34095;DHT22;20372;47.080;15.410;2023-05-10T03:25:07;7.40;99.90
34095;DHT22;20372;47.080;15.410;2023-05-10T03:27:35;7.40;99.90
34095;DHT22;20372;47.080;15.410;2023-05-10T03:30:02;7.40;99.90
34095;DHT22;20372;47.080;15.410;2023-05-10T03:32:28;7.40;99.90
34095;DHT22;20372;47.080;15.410;2023-05-10T03:34:54;7.30;99.90
34095;DHT22;20372;47.080;15.410;2023-05-10T03:37:19;7.30;99.90
34095;DHT22;20372;47.080;15.410;2023-05-10T03:39:45;7.30;99.90
34095;DHT22;20372;47.080;15.410;2023-05-10T03:42:11;7.40;99.90
34095;DHT22;20372;47.080;15.410;2023-05-10T03:44:38;7.40;99.90
34095;DHT22;20372;47.080;15.410;2023-05-10T03:47:04;7.40;99.90
34095;DHT22;20372;47.080;15.410;2023-05-10T03:49:30;7.40;99.90
34095;DHT22;20372;47.080;15.410;2023-05-10T03:51:55;7.40;99.90
34095;DHT22;20372;47.080;15.410;2023-05-10T03:54:21;7.40;99.90
34095;DHT22;20372;47.080;15.410;2023-05-10T03:56:46;7.40;99.90
34095;DHT22;20372;47.080;15.410;2023-05-10T03:59:13;7.40;99.90
34095;DHT22;20372;47.080;15.410;2023-05-10T04:01:39;7.50;99.90
34095;DHT22;20372;47.080;15.410;2023-05-10T04:04:04;7.50;99.90
34095;DHT22;20372;47.080;15.410;2023-05-10T04:06:30;7.50;99.90
34095;DHT22;20372;47.080;15.410;2023-05-10T04:08:56;7.50;99.90
34095;DHT22;20372;47.080;15.410;2023-05-10T04:11:21;7.60;99.90
34095;DHT22;20372;47.080;15.410;2023-05-10T04:13:47;7.50;99.90
34095;DHT22;20372;47.080;15.410;2023-05-10T04:16:13;7.60;99.90
34095;DHT22;20372;47.080;15.410;2023-05-10T04:18:39;7.60;99.90
34095;DHT22;20372;47.080;15.410;2023-05-10T04:21:10;7.60;99.90
34095;DHT22;20372;47.080;15.410;2023-05-10T04:23:36;7.60;99.90
34095;DHT22;20372;47.080;15.410;2023-05-10T04:26:02;7.60;99.90
34095;DHT22;20372;47.080;15.410;2023-05-10T04:28:27;7.60;99.90
34095;DHT22;20372;47.080;15.410;2023-05-10T04:30:53;7.60;99.90
34095;DHT22;20372;47.080;15.410;2023-05-10T04:33:18;7.70;99.90
34095;DHT22;20372;47.080;15.410;2023-05-10T04:35:44;7.80;99.90
34095;DHT22;20372;47.080;15.410;2023-05-10T04:38:10;7.80;99.90
34095;DHT22;20372;47.080;15.410;2023-05-10T04:40:36;7.90;99.90
34095;DHT22;20372;47.080;15.410;2023-05-10T04:43:01;8.00;99.90
34095;DHT22;20372;47.080;15.410;2023-05-10T04:45:27;8.10;99.90
34095;DHT22;20372;47.080;15.410;2023-05-10T04:47:52;8.10;99.90
34095;DHT22;20372;47.080;15.410;2023-05-10T04:50:18;8.20;99.90
34095;DHT22;20372;47.080;15.410;2023-05-10T04:52:44;8.20;99.90
34095;DHT22;20372;47.080;15.410;2023-05-10T04:55:10;8.30;99.90
34095;DHT22;20372;47.080;15.410;2023-05-10T04:57:36;8.20;99.90
34095;DHT22;20372;47.080;15.410;2023-05-10T05:00:01;8.20;99.90
34095;DHT22;20372;47.080;15.410;2023-05-10T05:02:27;8.20;99.90
34095;DHT22;20372;47.080;15.410;2023-05-10T05:04:52;8.30;99.90
34095;DHT22;20372;47.080;15.410;2023-05-10T05:07:18;9.00;99.90
34095;DHT22;20372;47.080;15.410;2023-05-10T05:09:44;12.00;99.90
34095;DHT22;20372;47.080;15.410;2023-05-10T05:12:09;13.30;99.90
34095;DHT22;20372;47.080;15.410;2023-05-10T05:14:39;14.20;99.90
34095;DHT22;20372;47.080;15.410;2023-05-10T05:17:05;14.70;99.90
34095;DHT22;20372;47.080;15.410;2023-05-10T05:19:31;15.00;99.90
34095;DHT22;20372;47.080;15.410;2023-05-10T05:21:56;15.00;99.90
34095;DHT22;20372;47.080;15.410;2023-05-10T05:24:22;15.60;99.90
34095;DHT22;20372;47.080;15.410;2023-05-10T05:26:48;16.30;99.20
34095;DHT22;20372;47.080;15.410;2023-05-10T05:29:14;16.70;97.70
34095;DHT22;20372;47.080;15.410;2023-05-10T05:31:39;16.60;96.60
34095;DHT22;20372;47.080;15.410;2023-05-10T05:34:05;16.00;97.20
34095;DHT22;20372;47.080;15.410;2023-05-10T05:36:31;15.90;96.50
34095;DHT22;20372;47.080;15.410;2023-05-10T05:38:57;15.50;97.90
34095;DHT22;20372;47.080;15.410;2023-05-10T05:41:22;15.60;98.10
34095;DHT22;20372;47.080;15.410;2023-05-10T05:43:49;15.80;97.70
34095;DHT22;20372;47.080;15.410;2023-05-10T05:46:15;15.70;97.20
34095;DHT22;20372;47.080;15.410;2023-05-10T05:48:41;15.40;98.10
34095;DHT22;20372;47.080;15.410;2023-05-10T05:51:07;14.70;98.50
34095;DHT22;20372;47.080;15.410;2023-05-10T05:53:32;14.00;99.90
34095;DHT22;20372;47.080;15.410;2023-05-10T05:55:58;14.20;99.90
34095;DHT22;20372;47.080;15.410;2023-05-10T05:58:24;13.80;99.90
34095;DHT22;20372;47.080;15.410;2023-05-10T06:00:50;13.50;99.90
34095;DHT22;20372;47.080;15.410;2023-05-10T06:03:17;13.40;99.90
34095;DHT22;20372;47.080;15.410;2023-05-10T06:05:43;13.20;99.90
34095;DHT22;20372;47.080;15.410;2023-05-10T06:08:08;13.30;99.90
34095;DHT22;20372;47.080;15.410;2023-05-10T06:10:35;13.40;99.90
34095;DHT22;20372;47.080;15.410;2023-05-10T06:13:01;13.50;99.90
34095;DHT22;20372;47.080;15.410;2023-05-10T06:15:27;13.30;99.90
34095;DHT22;20372;47.080;15.410;2023-05-10T06:17:53;13.20;99.90
34095;DHT22;20372;47.080;15.410;2023-05-10T06:20:18;13.40;99.90
34095;DHT22;20372;47.080;15.410;2023-05-10T06:22:44;13.30;99.90
34095;DHT22;20372;47.080;15.410;2023-05-10T06:25:10;13.00;99.90
34095;DHT22;20372;47.080;15.410;2023-05-10T06:27:36;12.70;99.90
34095;DHT22;20372;47.080;15.410;2023-05-10T06:30:02;12.60;99.90
34095;DHT22;20372;47.080;15.410;2023-05-10T06:32:28;12.70;99.90
34095;DHT22;20372;47.080;15.410;2023-05-10T06:34:54;12.50;99.90
34095;DHT22;20372;47.080;15.410;2023-05-10T06:37:19;12.80;99.90
34095;DHT22;20372;47.080;15.410;2023-05-10T06:39:45;13.10;99.90
34095;DHT22;20372;47.080;15.410;2023-05-10T06:42:11;13.40;99.90
34095;DHT22;20372;47.080;15.410;2023-05-10T06:44:36;13.50;99.90
34095;DHT22;20372;47.080;15.410;2023-05-10T06:47:02;13.70;99.90
34095;DHT22;20372;47.080;15.410;2023-05-10T06:49:28;13.70;99.90
34095;DHT22;20372;47.080;15.410;2023-05-10T06:51:54;13.80;99.90
34095;DHT22;20372;47.080;15.410;2023-05-10T06:54:20;13.50;99.90
34095;DHT22;20372;47.080;15.410;2023-05-10T06:56:46;13.30;99.90
34095;DHT22;20372;47.080;15.410;2023-05-10T06:59:11;13.40;99.90
34095;DHT22;20372;47.080;15.410;2023-05-10T07:01:39;13.50;99.90
34095;DHT22;20372;47.080;15.410;2023-05-10T07:04:04;13.50;99.90
34095;DHT22;20372;47.080;15.410;2023-05-10T07:06:30;13.70;99.50
34095;DHT22;20372;47.080;15.410;2023-05-10T07:08:55;13.80;99.10
34095;DHT22;20372;47.080;15.410;2023-05-10T07:11:21;14.40;99.70
34095;DHT22;20372;47.080;15.410;2023-05-10T07:13:47;14.70;99.00
34095;DHT22;20372;47.080;15.410;2023-05-10T07:16:12;14.70;98.00
34095;DHT22;20372;47.080;15.410;2023-05-10T07:18:38;15.30;98.10
34095;DHT22;20372;47.080;15.410;2023-05-10T07:21:03;16.00;98.70
34095;DHT22;20372;47.080;15.410;2023-05-10T07:23:29;16.50;95.50
34095;DHT22;20372;47.080;15.410;2023-05-10T07:25:55;17.30;93.60
34095;DHT22;20372;47.080;15.410;2023-05-10T07:28:22;18.20;92.50
34095;DHT22;20372;47.080;15.410;2023-05-10T07:30:48;18.40;93.30
34095;DHT22;20372;47.080;15.410;2023-05-10T07:33:14;17.80;91.70
34095;DHT22;20372;47.080;15.410;2023-05-10T07:35:40;18.90;92.40
34095;DHT22;20372;47.080;15.410;2023-05-10T07:38:05;19.90;92.20
34095;DHT22;20372;47.080;15.410;2023-05-10T07:40:31;19.00;90.20
34095;DHT22;20372;47.080;15.410;2023-05-10T07:42:57;18.00;88.10
34095;DHT22;20372;47.080;15.410;2023-05-10T07:45:22;18.00;90.40
34095;DHT22;20372;47.080;15.410;2023-05-10T07:47:49;18.50;90.40
34095;DHT22;20372;47.080;15.410;2023-05-10T07:50:14;18.80;91.00
34095;DHT22;20372;47.080;15.410;2023-05-10T07:52:41;18.20;91.30
34095;DHT22;20372;47.080;15.410;2023-05-10T07:55:07;17.50;91.70
34095;DHT22;20372;47.080;15.410;2023-05-10T07:57:33;16.80;90.30
34095;DHT22;20372;47.080;15.410;2023-05-10T07:59:59;15.70;91.60
34095;DHT22;20372;47.080;15.410;2023-05-10T08:02:24;15.90;94.50
34095;DHT22;20372;47.080;15.410;2023-05-10T08:04:50;16.00;95.30
34095;DHT22;20372;47.080;15.410;2023-05-10T08:07:16;16.20;94.50
34095;DHT22;20372;47.080;15.410;2023-05-10T08:09:42;16.20;94.60
34095;DHT22;20372;47.080;15.410;2023-05-10T08:12:08;16.20;95.20
34095;DHT22;20372;47.080;15.410;2023-05-10T08:14:37;16.20;93.70
34095;DHT22;20372;47.080;15.410;2023-05-10T08:17:03;15.70;92.80
34095;DHT22;20372;47.080;15.410;2023-05-10T08:19:30;15.90;94.70
34095;DHT22;20372;47.080;15.410;2023-05-10T08:21:56;16.20;94.30
34095;DHT22;20372;47.080;15.410;2023-05-10T08:24:22;16.20;92.30
34095;DHT22;20372;47.080;15.410;2023-05-10T08:26:49;14.80;93.00
34095;DHT22;20372;47.080;15.410;2023-05-10T08:29:14;15.10;93.80
34095;DHT22;20372;47.080;15.410;2023-05-10T08:31:40;15.70;94.70
34095;DHT22;20372;47.080;15.410;2023-05-10T08:34:06;16.40;94.60
34095;DHT22;20372;47.080;15.410;2023-05-10T08:36:31;16.60;94.30
34095;DHT22;20372;47.080;15.410;2023-05-10T08:38:57;16.60;92.20
34095;DHT22;20372;47.080;15.410;2023-05-10T08:41:23;15.90;92.80
34095;DHT22;20372;47.080;15.410;2023-05-10T08:43:52;15.90;92.20
34095;DHT22;20372;47.080;15.410;2023-05-10T08:46:22;15.90;92.80
34095;DHT22;20372;47.080;15.410;2023-05-10T08:48:54;16.30;91.80
34095;DHT22;20372;47.080;15.410;2023-05-10T08:51:24;16.60;92.50
34095;DHT22;20372;47.080;15.410;2023-05-10T08:53:52;15.80;87.20
34095;DHT22;20372;47.080;15.410;2023-05-10T08:56:18;15.10;90.30
34095;DHT22;20372;47.080;15.410;2023-05-10T08:58:46;15.10;90.30
34095;DHT22;20372;47.080;15.410;2023-05-10T09:01:12;15.10;90.40
34095;DHT22;20372;47.080;15.410;2023-05-10T09:03:39;15.30;92.10
34095;DHT22;20372;47.080;15.410;2023-05-10T09:06:05;15.90;90.90
34095;DHT22;20372;47.080;15.410;2023-05-10T09:08:32;16.00;88.80
34095;DHT22;20372;47.080;15.410;2023-05-10T09:10:59;16.10;86.90
34095;DHT22;20372;47.080;15.410;2023-05-10T09:13:26;15.80;86.90
34095;DHT22;20372;47.080;15.410;2023-05-10T09:15:52;16.00;85.70
34095;DHT22;20372;47.080;15.410;2023-05-10T09:18:18;15.80;87.40
34095;DHT22;20372;47.080;15.410;2023-05-10T09:20:43;16.50;85.40
34095;DHT22;20372;47.080;15.410;2023-05-10T09:23:09;17.20;83.80
34095;DHT22;20372;47.080;15.410;2023-05-10T09:25:35;17.30;84.30
34095;DHT22;20372;47.080;15.410;2023-05-10T09:28:00;16.60;83.70
34095;DHT22;20372;47.080;15.410;2023-05-10T09:30:27;16.30;86.40
34095;DHT22;20372;47.080;15.410;2023-05-10T09:32:53;16.70;88.00
34095;DHT22;20372;47.080;15.410;2023-05-10T09:35:20;17.50;87.20
34095;DHT22;20372;47.080;15.410;2023-05-10T09:37:47;18.10;88.90
34095;DHT22;20372;47.080;15.410;2023-05-10T09:42:39;17.20;84.60
34095;DHT22;20372;47.080;15.410;2023-05-10T09:45:05;17.80;88.10
34095;DHT22;20372;47.080;15.410;2023-05-10T09:47:32;18.20;85.00
34095;DHT22;20372;47.080;15.410;2023-05-10T09:49:59;18.20;83.20
34095;DHT22;20372;47.080;15.410;2023-05-10T09:52:29;18.10;82.90
34095;DHT22;20372;47.080;15.410;2023-05-10T09:54:55;17.40;86.60
34095;DHT22;20372;47.080;15.410;2023-05-10T09:57:21;18.40;87.40
34095;DHT22;20372;47.080;15.410;2023-05-10T09:59:47;19.20;79.90
34095;DHT22;20372;47.080;15.410;2023-05-10T10:02:13;18.70;78.90
34095;DHT22;20372;47.080;15.410;2023-05-10T10:04:39;19.00;85.70
34095;DHT22;20372;47.080;15.410;2023-05-10T10:07:06;18.90;81.00
34095;DHT22;20372;47.080;15.410;2023-05-10T10:09:32;18.40;87.40
34095;DHT22;20372;47.080;15.410;2023-05-10T10:11:58;18.90;86.10
34095;DHT22;20372;47.080;15.410;2023-05-10T10:14:24;18.50;82.70
34095;DHT22;20372;47.080;15.410;2023-05-10T10:16:50;18.50;87.20
34095;DHT22;20372;47.080;15.410;2023-05-10T10:19:17;18.90;87.10
34095;DHT22;20372;47.080;15.410;2023-05-10T10:21:44;19.10;87.40
34095;DHT22;20372;47.080;15.410;2023-05-10T10:24:09;19.50;85.00
34095;DHT22;20372;47.080;15.410;2023-05-10T10:26:35;19.70;88.40
34095;DHT22;20372;47.080;15.410;2023-05-10T10:29:16;18.90;81.00
34095;DHT22;20372;47.080;15.410;2023-05-10T10:31:48;18.60;85.90
34095;DHT22;20372;47.080;15.410;2023-05-10T10:34:22;21.00;85.30
34095;DHT22;20372;47.080;15.410;2023-05-10T10:36:50;19.10;86.90
34095;DHT22;20372;47.080;15.410;2023-05-10T10:39:18;18.50;84.30
34095;DHT22;20372;47.080;15.410;2023-05-10T10:41:52;18.70;84.80
34095;DHT22;20372;47.080;15.410;2023-05-10T10:47:04;19.80;81.60
34095;DHT22;20372;47.080;15.410;2023-05-10T11:02:57;19.30;84.50
34095;DHT22;20372;47.080;15.410;2023-05-10T11:08:06;19.40;82.50
34095;DHT22;20372;47.080;15.410;2023-05-10T11:10:32;19.90;85.40
34095;DHT22;20372;47.080;15.410;2023-05-10T11:13:09;19.60;80.80
34095;DHT22;20372;47.080;15.410;2023-05-10T11:15:36;18.90;80.30
34095;DHT22;20372;47.080;15.410;2023-05-10T11:18:20;18.70;86.40
34095;DHT22;20372;47.080;15.410;2023-05-10T11:21:08;19.10;86.90
34095;DHT22;20372;47.080;15.410;2023-05-10T11:23:57;18.20;82.40
34095;DHT22;20372;47.080;15.410;2023-05-10T11:26:23;18.60;82.60
34095;DHT22;20372;47.080;15.410;2023-05-10T11:28:51;18.40;84.50
34095;DHT22;20372;47.080;15.410;2023-05-10T11:31:17;18.40;88.10
34095;DHT22;20372;47.080;15.410;2023-05-10T11:33:47;18.60;84.10
34095;DHT22;20372;47.080;15.410;2023-05-10T11:36:14;17.90;84.30
34095;DHT22;20372;47.080;15.410;2023-05-10T11:38:40;17.20;85.30
34095;DHT22;20372;47.080;15.410;2023-05-10T11:41:07;17.50;89.60
34095;DHT22;20372;47.080;15.410;2023-05-10T11:43:33;17.70;90.10
34095;DHT22;20372;47.080;15.410;2023-05-10T11:45:59;17.30;86.80
34095;DHT22;20372;47.080;15.410;2023-05-10T11:48:24;17.40;89.60
34095;DHT22;20372;47.080;15.410;2023-05-10T11:50:50;17.40;90.30
34095;DHT22;20372;47.080;15.410;2023-05-10T11:53:15;17.10;86.60
34095;DHT22;20372;47.080;15.410;2023-05-10T11:55:41;16.50;88.00
34095;DHT22;20372;47.080;15.410;2023-05-10T11:58:07;16.60;90.00
34095;DHT22;20372;47.080;15.410;2023-05-10T12:00:32;16.70;90.20
34095;DHT22;20372;47.080;15.410;2023-05-10T12:02:59;16.20;88.60
34095;DHT22;20372;47.080;15.410;2023-05-10T12:05:25;16.00;90.00
34095;DHT22;20372;47.080;15.410;2023-05-10T12:07:51;16.40;89.80
34095;DHT22;20372;47.080;15.410;2023-05-10T12:10:17;16.60;88.70
34095;DHT22;20372;47.080;15.410;2023-05-10T12:12:51;16.90;90.20
34095;DHT22;20372;47.080;15.410;2023-05-10T12:15:20;16.60;88.20
34095;DHT22;20372;47.080;15.410;2023-05-10T12:17:46;16.60;90.90
34095;DHT22;20372;47.080;15.410;2023-05-10T12:22:43;16.40;88.50
34095;DHT22;20372;47.080;15.410;2023-05-10T12:25:09;16.60;89.10
34095;DHT22;20372;47.080;15.410;2023-05-10T12:27:35;16.70;89.20
34095;DHT22;20372;47.080;15.410;2023-05-10T12:30:01;16.60;88.40
34095;DHT22;20372;47.080;15.410;2023-05-10T12:32:41;16.80;90.70
34095;DHT22;20372;47.080;15.410;2023-05-10T12:35:06;16.70;89.60
34095;DHT22;20372;47.080;15.410;2023-05-10T12:37:32;16.80;88.60
34095;DHT22;20372;47.080;15.410;2023-05-10T12:40:01;16.80;87.80
34095;DHT22;20372;47.080;15.410;2023-05-10T12:42:30;16.80;87.20
34095;DHT22;20372;47.080;15.410;2023-05-10T12:44:56;16.30;87.20
34095;DHT22;20372;47.080;15.410;2023-05-10T12:47:22;16.20;87.70
34095;DHT22;20372;47.080;15.410;2023-05-10T12:49:48;16.10;88.50
34095;DHT22;20372;47.080;15.410;2023-05-10T12:52:14;16.00;88.50
34095;DHT22;20372;47.080;15.410;2023-05-10T12:54:39;16.30;91.20
34095;DHT22;20372;47.080;15.410;2023-05-10T12:57:05;16.40;88.20
34095;DHT22;20372;47.080;15.410;2023-05-10T12:59:30;16.30;90.00
34095;DHT22;20372;47.080;15.410;2023-05-10T13:01:56;16.50;89.60
34095;DHT22;20372;47.080;15.410;2023-05-10T13:04:22;16.50;88.40
34095;DHT22;20372;47.080;15.410;2023-05-10T13:06:48;16.50;88.10
34095;DHT22;20372;47.080;15.410;2023-05-10T13:09:13;16.40;88.50
34095;DHT22;20372;47.080;15.410;2023-05-10T13:11:39;16.40;88.10
34095;DHT22;20372;47.080;15.410;2023-05-10T13:14:05;16.40;87.80
34095;DHT22;20372;47.080;15.410;2023-05-10T13:16:30;16.60;89.10
34095;DHT22;20372;47.080;15.410;2023-05-10T13:18:56;16.80;88.50
34095;DHT22;20372;47.080;15.410;2023-05-10T13:21:22;16.60;88.10
34095;DHT22;20372;47.080;15.410;2023-05-10T13:23:49;16.90;91.40
34095;DHT22;20372;47.080;15.410;2023-05-10T13:26:15;16.80;87.30
34095;DHT22;20372;47.080;15.410;2023-05-10T13:28:40;16.60;88.80
34095;DHT22;20372;47.080;15.410;2023-05-10T13:31:06;16.90;92.10
34095;DHT22;20372;47.080;15.410;2023-05-10T13:33:32;16.90;92.00
34095;DHT22;20372;47.080;15.410;2023-05-10T13:35:57;17.00;90.30
34095;DHT22;20372;47.080;15.410;2023-05-10T13:38:23;18.80;90.80
34095;DHT22;20372;47.080;15.410;2023-05-10T13:40:49;16.80;92.40
34095;DHT22;20372;47.080;15.410;2023-05-10T13:43:20;16.70;88.70
34095;DHT22;20372;47.080;15.410;2023-05-10T13:45:46;16.70;88.60
34095;DHT22;20372;47.080;15.410;2023-05-10T13:48:12;16.50;89.10
34095;DHT22;20372;47.080;15.410;2023-05-10T13:50:37;16.30;88.60
34095;DHT22;20372;47.080;15.410;2023-05-10T13:53:03;16.20;89.30
34095;DHT22;20372;47.080;15.410;2023-05-10T13:55:29;16.20;89.90
34095;DHT22;20372;47.080;15.410;2023-05-10T13:57:55;16.30;89.50
34095;DHT22;20372;47.080;15.410;2023-05-10T14:00:20;16.60;90.80
34095;DHT22;20372;47.080;15.410;2023-05-10T14:02:46;16.60;89.20
34095;DHT22;20372;47.080;15.410;2023-05-10T14:05:11;16.40;88.30
34095;DHT22;20372;47.080;15.410;2023-05-10T14:07:37;16.40;88.30
34095;DHT22;20372;47.080;15.410;2023-05-10T14:10:03;16.50;89.20
34095;DHT22;20372;47.080;15.410;2023-05-10T14:12:28;16.90;91.20
34095;DHT22;20372;47.080;15.410;2023-05-10T14:14:54;17.20;91.10
34095;DHT22;20372;47.080;15.410;2023-05-10T14:17:20;17.10;87.90
34095;DHT22;20372;47.080;15.410;2023-05-10T14:19:45;17.00;90.40
34095;DHT22;20372;47.080;15.410;2023-05-10T14:22:11;17.10;89.50
34095;DHT22;20372;47.080;15.410;2023-05-10T14:24:37;17.30;90.70
34095;DHT22;20372;47.080;15.410;2023-05-10T14:27:03;17.30;90.60
34095;DHT22;20372;47.080;15.410;2023-05-10T14:29:28;17.40;90.90
34095;DHT22;20372;47.080;15.410;2023-05-10T14:31:54;17.50;90.50
34095;DHT22;20372;47.080;15.410;2023-05-10T14:34:19;17.60;90.50
34095;DHT22;20372;47.080;15.410;2023-05-10T14:36:45;17.00;85.20
34095;DHT22;20372;47.080;15.410;2023-05-10T14:39:11;16.80;85.90
34095;DHT22;20372;47.080;15.410;2023-05-10T14:41:38;16.70;86.80
34095;DHT22;20372;47.080;15.410;2023-05-10T14:44:06;16.80;88.50
34095;DHT22;20372;47.080;15.410;2023-05-10T14:46:31;17.00;88.40
34095;DHT22;20372;47.080;15.410;2023-05-10T14:48:57;17.00;86.20
34095;DHT22;20372;47.080;15.410;2023-05-10T14:51:22;17.20;90.80
34095;DHT22;20372;47.080;15.410;2023-05-10T14:53:48;17.20;90.10
34095;DHT22;20372;47.080;15.410;2023-05-10T14:56:15;17.30;89.60
34095;DHT22;20372;47.080;15.410;2023-05-10T14:58:40;17.40;90.70
34095;DHT22;20372;47.080;15.410;2023-05-10T15:01:06;17.30;87.20
34095;DHT22;20372;47.080;15.410;2023-05-10T15:03:32;17.60;87.90
34095;DHT22;20372;47.080;15.410;2023-05-10T15:05:57;17.60;90.70
34095;DHT22;20372;47.080;15.410;2023-05-10T15:08:23;17.70;89.50
34095;DHT22;20372;47.080;15.410;2023-05-10T15:10:50;17.80;87.80
34095;DHT22;20372;47.080;15.410;2023-05-10T15:13:16;17.40;84.60
34095;DHT22;20372;47.080;15.410;2023-05-10T15:15:41;17.20;85.90
34095;DHT22;20372;47.080;15.410;2023-05-10T15:18:08;17.20;89.70
34095;DHT22;20372;47.080;15.410;2023-05-10T15:20:34;17.30;86.50
34095;DHT22;20372;47.080;15.410;2023-05-10T15:23:00;17.30;86.10
34095;DHT22;20372;47.080;15.410;2023-05-10T15:25:26;17.30;85.80
34095;DHT22;20372;47.080;15.410;2023-05-10T15:27:51;17.10;86.20
34095;DHT22;20372;47.080;15.410;2023-05-10T15:30:17;16.90;85.90
34095;DHT22;20372;47.080;15.410;2023-05-10T15:32:42;16.70;87.50
34095;DHT22;20372;47.080;15.410;2023-05-10T15:35:08;16.80;88.50
34095;DHT22;20372;47.080;15.410;2023-05-10T15:37:35;16.80;86.90
34095;DHT22;20372;47.080;15.410;2023-05-10T15:40:01;16.80;86.80
34095;DHT22;20372;47.080;15.410;2023-05-10T15:42:31;16.70;86.90
34095;DHT22;20372;47.080;15.410;2023-05-10T15:44:57;16.80;87.20
34095;DHT22;20372;47.080;15.410;2023-05-10T15:47:23;17.00;87.50
34095;DHT22;20372;47.080;15.410;2023-05-10T15:49:49;17.20;87.40
34095;DHT22;20372;47.080;15.410;2023-05-10T15:52:15;17.40;86.70
34095;DHT22;20372;47.080;15.410;2023-05-10T15:54:41;17.20;85.70